BIENTÔT MET'MAP
version 2.0 !

Prévue avant fin octobre,
la nouvelle version sera
plus belle, plus complète
et hébergée sur un serveur
3 fois plus puissant...
et toujours gratuite !


Pas compatible ?
Essayez la version Mobile !

SE CONNECTER : | S'inscrire | Disclaimer | Découvrir Orbifly |
Code OACI :

TAF - LGTL Kasteli AB - 30 Mar 2020 13:02 UTC - Data Source NOAA   


- Altitude de l'aérodrome : 1180 ft
- Pas de NOTAMs connus.


LGTL - Kasteli AB

PAS DE METAR
TAF TAF LGTL
Valide du 30 à 09h jusqu'au 30 à 18h UTC


300800Z 3009/3018 03005KT 9999 FEW010 SCT025 BKN080
PROB30
TEMPO 3012/3018 7000 RA
BECMG 3012/3014 14008KT

Source NOAA


MET'MAP, la Météo Aéronautique d'un coup d'oeil ! - Copyright ORBIFLY Décembre 2007

Développement & Programmation : Alexandra Zaïnal
Co-Développement : Marc-Olivier Méhu
Soutien technique & logistique : Manuel Goepfert
Conception & Financement : Baudouin d'Aumeries